Time;durP1;ratioP1;P1;durP2;ratioP2;P2;SDS_P1;SDS_P2;PMS_P1;PMS_P2;Temp;Humidity;BMP_temperature;BMP_pressure;BME280_temperature;BME280_humidity;BME280_pressure;Samples;Min_cycle;Max_cycle;Signal;HPM_P1;HPM_P2
2023/04/03 00:00:46;;;;;;;1.23;1.13;;;;;;;10.52;68.19;100666.41;4975228;28;20023;-84
2023/04/03 00:03:12;;;;;;;2.20;1.67;;;;;;;10.49;67.91;100663.94;4991530;28;20029;-84
2023/04/03 00:05:37;;;;;;;2.38;1.98;;;;;;;10.45;68.15;100657.25;4975476;28;20023;-84
2023/04/03 00:08:04;;;;;;;3.45;2.38;;;;;;;10.34;68.49;100642.25;4991355;28;20022;-84
2023/04/03 00:10:30;;;;;;;2.85;1.98;;;;;;;10.40;68.28;100628.16;4991578;28;20524;-84
2023/04/03 00:12:55;;;;;;;3.42;2.15;;;;;;;10.54;68.17;100646.47;4991684;28;20097;-84
2023/04/03 00:15:20;;;;;;;2.80;1.80;;;;;;;10.43;68.03;100643.56;4974942;28;20507;-83
2023/04/03 00:17:46;;;;;;;3.28;1.90;;;;;;;10.54;68.06;100640.44;4975007;28;20023;-84
2023/04/03 00:20:11;;;;;;;2.85;1.98;;;;;;;10.46;68.06;100635.63;4975178;28;20026;-83
2023/04/03 00:22:37;;;;;;;3.63;1.85;;;;;;;10.62;67.99;100654.69;4975024;28;20042;-83
2023/04/03 00:25:03;;;;;;;3.08;1.60;;;;;;;10.42;67.92;100623.78;4974850;28;21018;-84
2023/04/03 00:27:28;;;;;;;3.85;2.38;;;;;;;10.32;67.97;100613.03;4975088;28;20117;-83
2023/04/03 00:29:54;;;;;;;3.25;2.15;;;;;;;10.26;68.62;100615.06;4990829;28;20029;-83
2023/04/03 00:32:19;;;;;;;1.90;1.70;;;;;;;10.29;68.56;100636.44;4974894;28;20026;-83
2023/04/03 00:34:45;;;;;;;2.38;1.85;;;;;;;10.36;68.40;100626.66;4990327;28;20031;-84
2023/04/03 00:37:10;;;;;;;4.70;2.35;;;;;;;10.10;68.66;100604.56;4974413;28;20030;-84
2023/04/03 00:39:36;;;;;;;3.08;1.85;;;;;;;10.25;68.49;100637.50;4989899;28;20048;-83
2023/04/03 00:42:01;;;;;;;2.45;1.85;;;;;;;10.23;68.79;100639.34;4958621;28;20026;-84
2023/04/03 00:44:33;;;;;;;2.20;1.42;;;;;;;10.24;69.06;100653.94;4990630;28;20030;-83
2023/04/03 00:46:59;;;;;;;2.28;1.80;;;;;;;10.07;68.72;100622.81;4992239;28;20022;-83
2023/04/03 00:49:25;;;;;;;1.70;1.52;;;;;;;10.22;68.99;100649.72;4974503;28;20027;-83
2023/04/03 00:51:50;;;;;;;3.25;2.35;;;;;;;10.23;68.97;100652.25;4974307;28;20029;-84
2023/04/03 00:54:16;;;;;;;4.05;2.08;;;;;;;10.22;68.96;100665.22;4974622;28;20034;-84
2023/04/03 00:56:42;;;;;;;3.53;2.80;;;;;;;10.11;68.88;100657.94;4974464;28;20495;-83
2023/04/03 00:59:16;;;;;;;1.17;0.98;;;;;;;10.21;69.19;100666.09;4974743;28;20468;-83
2023/04/03 01:01:42;;;;;;;2.53;1.88;;;;;;;10.22;69.15;100650.56;4974780;28;20033;-83
2023/04/03 01:04:36;;;;;;;2.72;2.13;;;;;;;10.30;69.09;100663.13;4958225;28;20026;-83
2023/04/03 01:07:06;;;;;;;3.78;1.77;;;;;;;10.25;69.38;100662.53;4975530;28;20018;-84
2023/04/03 01:09:32;;;;;;;2.33;1.60;;;;;;;10.19;69.20;100655.84;4958643;28;20026;-83
2023/04/03 01:12:25;;;;;;;2.72;1.63;;;;;;;10.31;69.02;100664.81;4974391;28;20082;-84
2023/04/03 01:14:52;;;;;;;2.38;1.55;;;;;;;10.15;68.82;100643.16;5005834;28;20053;-84
2023/04/03 01:18:04;;;;;;;1.80;1.50;;;;;;;10.26;68.55;100667.63;4958184;28;20488;-83
2023/04/03 01:20:34;;;;;;;4.70;1.90;;;;;;;10.19;68.70;100665.34;4990265;28;20041;-83
2023/04/03 01:23:08;;;;;;;1.30;0.80;;;;;;;10.25;68.48;100660.78;4991501;28;20022;-84
2023/04/03 01:25:44;;;;;;;1.15;1.00;;;;;;;10.11;68.54;100642.44;4991827;28;20018;-83
2023/04/03 01:28:11;;;;;;;3.78;2.00;;;;;;;9.94;68.38;100614.81;4990645;28;20030;-83
2023/04/03 01:30:49;;;;;;;2.85;2.00;;;;;;;10.08;68.13;100627.06;4989856;28;20031;-83
2023/04/03 01:33:15;;;;;;;3.75;1.85;;;;;;;10.00;68.25;100634.34;4991375;28;20498;-84
2023/04/03 01:35:40;;;;;;;2.03;1.40;;;;;;;9.89;68.67;100624.50;4973481;28;20054;-83
2023/04/03 01:38:06;;;;;;;3.30;2.20;;;;;;;10.07;68.33;100649.50;4989341;28;20035;-83
2023/04/03 01:40:32;;;;;;;1.95;1.27;;;;;;;9.81;68.07;100613.69;4972204;28;20019;-83
2023/04/03 01:42:57;;;;;;;2.22;1.40;;;;;;;9.96;67.87;100643.16;5006482;28;20030;-83
2023/04/03 01:45:23;;;;;;;1.52;1.25;;;;;;;10.01;67.88;100656.69;4988339;28;20041;-84
2023/04/03 01:47:48;;;;;;;1.40;1.20;;;;;;;10.10;67.41;100660.59;4957416;28;20030;-83
2023/04/03 01:50:13;;;;;;;2.42;1.23;;;;;;;9.89;67.51;100642.59;4991263;28;20026;-83
2023/04/03 01:52:39;;;;;;;1.67;1.13;;;;;;;9.96;67.62;100648.34;4977829;28;20022;-83
2023/04/03 01:55:05;;;;;;;3.95;1.38;;;;;;;9.99;67.52;100646.44;4977717;28;20365;-84
2023/04/03 01:57:31;;;;;;;1.75;1.55;;;;;;;10.09;67.27;100661.53;4993854;28;20395;-83
2023/04/03 01:59:56;;;;;;;3.53;1.75;;;;;;;10.01;67.13;100654.09;4977744;28;20036;-83
2023/04/03 02:02:21;;;;;;;2.75;1.35;;;;;;;9.99;67.09;100659.34;4977318;28;20427;-83
2023/04/03 02:04:47;;;;;;;1.65;1.30;;;;;;;9.94;67.18;100655.31;4994728;28;20030;-83
2023/04/03 02:07:12;;;;;;;3.10;1.73;;;;;;;9.79;67.64;100656.84;4961420;28;20029;-83
2023/04/03 02:09:38;;;;;;;3.03;2.00;;;;;;;9.72;67.86;100647.69;4977675;28;20530;-83
2023/04/03 02:12:03;;;;;;;3.13;1.50;;;;;;;9.62;67.69;100639.50;4977773;28;20030;-84
2023/04/03 02:14:29;;;;;;;1.40;1.15;;;;;;;9.74;68.07;100663.97;4993945;28;20038;-83
2023/04/03 02:16:54;;;;;;;2.55;1.10;;;;;;;9.82;68.25;100674.78;4977342;28;20022;-83
2023/04/03 02:19:20;;;;;;;5.20;3.00;;;;;;;9.67;68.39;100647.06;4977208;28;20030;-84
2023/04/03 02:21:45;;;;;;;5.45;1.67;;;;;;;9.68;68.43;100664.25;4993470;28;20030;-83
2023/04/03 02:24:11;;;;;;;5.85;1.85;;;;;;;9.63;68.65;100679.91;5009803;28;20022;-84
2023/04/03 02:26:36;;;;;;;2.28;1.83;;;;;;;9.49;68.54;100665.03;4977103;28;20042;-83
2023/04/03 02:29:02;;;;;;;1.45;1.08;;;;;;;9.55;68.91;100663.94;4993535;28;20026;-83
2023/04/03 02:31:28;;;;;;;2.65;1.55;;;;;;;9.59;68.90;100665.47;4961082;28;20373;-83
2023/04/03 02:33:53;;;;;;;2.83;1.67;;;;;;;9.52;68.78;100656.31;4976840;28;20033;-83
2023/04/03 02:36:19;;;;;;;2.03;1.30;;;;;;;9.53;68.69;100654.56;4976371;28;20042;-83
2023/04/03 02:38:45;;;;;;;1.13;1.02;;;;;;;9.55;68.90;100669.13;4993166;28;20034;-83
2023/04/03 02:41:11;;;;;;;2.35;1.50;;;;;;;9.61;68.75;100676.56;4976859;28;20030;-84
2023/04/03 02:43:37;;;;;;;2.72;1.33;;;;;;;9.38;68.45;100631.09;4960739;28;20026;-84
2023/04/03 02:46:02;;;;;;;1.38;1.27;;;;;;;9.57;68.79;100658.72;4976755;28;20388;-83
2023/04/03 02:48:28;;;;;;;1.63;1.08;;;;;;;9.46;69.00;100654.84;4993072;28;20023;-83
2023/04/03 02:50:53;;;;;;;2.25;1.95;;;;;;;9.46;69.29;100659.19;4960593;28;20022;-84
2023/04/03 02:53:19;;;;;;;2.88;1.67;;;;;;;9.37;69.00;100650.09;4976532;28;20041;-83
2023/04/03 02:55:45;;;;;;;2.60;1.75;;;;;;;9.38;69.14;100651.75;4960606;28;20081;-83
2023/04/03 02:58:10;;;;;;;2.25;1.50;;;;;;;9.52;69.45;100673.56;4976473;28;20537;-83
2023/04/03 03:00:36;;;;;;;1.75;1.42;;;;;;;9.47;69.01;100666.84;4993125;28;20027;-83
2023/04/03 03:03:01;;;;;;;4.30;1.88;;;;;;;9.40;69.51;100667.19;4959377;28;20030;-84
2023/04/03 03:05:27;;;;;;;4.43;2.60;;;;;;;9.44;69.19;100677.34;4976274;28;20618;-83
2023/04/03 03:07:53;;;;;;;3.50;1.50;;;;;;;9.33;69.19;100648.53;4976461;28;20018;-87
2023/04/03 03:10:18;;;;;;;2.00;1.52;;;;;;;9.43;69.29;100665.31;5008972;28;20165;-86
2023/04/03 03:12:44;;;;;;;2.03;1.73;;;;;;;9.47;69.47;100671.19;4976279;28;20069;-85
2023/04/03 03:15:09;;;;;;;5.07;1.95;;;;;;;9.58;68.96;100675.88;4960183;28;20022;-85
2023/04/03 03:17:36;;;;;;;18.52;2.45;;;;;;;9.52;69.28;100676.13;4991826;28;20034;-85
2023/04/03 03:20:02;;;;;;;2.38;1.90;;;;;;;9.55;69.06;100676.88;4960358;28;20484;-85
2023/04/03 03:22:28;;;;;;;2.45;1.73;;;;;;;9.46;69.09;100661.78;4992474;28;20469;-85
2023/04/03 03:24:53;;;;;;;4.15;2.60;;;;;;;9.49;69.24;100671.94;4960058;28;20493;-85
2023/04/03 03:27:19;;;;;;;4.00;2.20;;;;;;;9.48;68.88;100668.53;4976062;28;20026;-85
2023/04/03 03:29:44;;;;;;;2.58;1.83;;;;;;;9.32;69.05;100635.69;4958341;28;20428;-86
2023/04/03 03:32:10;;;;;;;3.83;1.88;;;;;;;9.47;69.45;100666.84;4975106;28;20435;-81
2023/04/03 03:34:35;;;;;;;3.17;2.17;;;;;;;9.43;69.61;100667.88;4975150;28;20030;-82
2023/04/03 03:37:00;;;;;;;2.88;1.85;;;;;;;9.34;69.92;100667.44;4991500;28;20049;-81
2023/04/03 03:39:26;;;;;;;2.92;1.75;;;;;;;8.94;70.59;100622.69;4987689;28;20027;-86
2023/04/03 03:41:53;;;;;;;2.17;1.45;;;;;;;9.19;70.56;100666.38;4956099;28;20481;-86
2023/04/03 03:44:19;;;;;;;3.42;1.98;;;;;;;9.02;70.78;100648.16;4955698;28;20030;-85
2023/04/03 03:46:44;;;;;;;1.85;1.58;;;;;;;9.13;71.12;100670.03;4956695;28;20023;-86
2023/04/03 03:49:11;;;;;;;1.20;0.93;;;;;;;9.10;71.02;100667.59;4972152;28;20031;-86
2023/04/03 03:51:37;;;;;;;3.42;2.25;;;;;;;9.18;70.98;100675.03;4956421;28;20173;-86
2023/04/03 03:54:03;;;;;;;3.80;2.10;;;;;;;9.09;71.16;100667.66;4956260;28;20029;-84
2023/04/03 03:56:28;;;;;;;4.50;1.85;;;;;;;9.03;71.52;100655.00;4955987;28;20397;-85
2023/04/03 03:58:55;;;;;;;2.95;2.03;;;;;;;9.03;71.47;100671.31;4955771;28;20027;-85
2023/04/03 04:01:22;;;;;;;2.80;1.80;;;;;;;9.10;71.68;100682.25;4956266;28;20031;-85
2023/04/03 04:03:47;;;;;;;3.60;2.65;;;;;;;9.07;71.99;100677.22;4955868;28;20022;-83
2023/04/03 04:06:13;;;;;;;3.53;1.85;;;;;;;9.03;72.05;100673.06;4939833;28;20073;-85
2023/04/03 04:08:38;;;;;;;4.72;3.20;;;;;;;8.87;72.15;100655.66;4971388;28;20414;-86
2023/04/03 04:11:04;;;;;;;3.47;2.55;;;;;;;8.86;72.40;100653.16;4955116;28;20018;-85
2023/04/03 04:13:29;;;;;;;3.33;2.05;;;;;;;8.90;72.65;100649.53;4955205;28;20398;-84
2023/04/03 04:15:55;;;;;;;3.53;2.80;;;;;;;8.95;72.10;100647.59;4949638;28;20538;-79
2023/04/03 04:18:21;;;;;;;4.45;2.65;;;;;;;9.06;72.18;100657.47;4989734;28;20041;-81
2023/04/03 04:20:46;;;;;;;4.07;2.38;;;;;;;8.87;72.30;100629.03;4990938;28;20026;-82
2023/04/03 04:23:12;;;;;;;2.33;1.70;;;;;;;9.00;71.84;100645.66;4974519;28;20037;-86
2023/04/03 04:25:37;;;;;;;3.55;2.15;;;;;;;9.08;71.74;100651.34;4974710;28;20034;-83
2023/04/03 04:28:03;;;;;;;6.63;2.83;;;;;;;8.90;71.26;100628.88;4957148;28;20381;-85
2023/04/03 04:30:28;;;;;;;8.63;2.55;;;;;;;8.97;71.58;100635.47;4958429;28;20022;-91
2023/04/03 04:32:54;;;;;;;2.72;2.22;;;;;;;9.11;71.85;100647.78;4958215;28;20027;-83
2023/04/03 04:35:19;;;;;;;8.68;4.68;;;;;;;9.12;71.91;100654.63;4974225;28;20385;-86
2023/04/03 04:37:45;;;;;;;5.20;3.08;;;;;;;9.06;71.83;100644.56;4990211;28;20030;-82
2023/04/03 04:40:11;;;;;;;3.65;2.35;;;;;;;8.88;72.34;100618.63;4989714;28;20034;-84
2023/04/03 04:42:36;;;;;;;3.70;2.22;;;;;;;8.88;72.16;100610.06;4989611;28;20038;-88
2023/04/03 04:45:02;;;;;;;4.47;3.40;;;;;;;9.10;72.21;100646.09;4991211;28;20412;-84
2023/04/03 04:47:28;;;;;;;5.57;1.70;;;;;;;9.10;71.91;100641.78;4991391;28;20027;-85
2023/04/03 04:49:54;;;;;;;5.78;3.63;;;;;;;9.24;71.87;100648.94;4987979;28;20427;-88
2023/04/03 04:52:19;;;;;;;2.88;2.00;;;;;;;9.11;71.57;100633.13;4986847;28;20031;-83
2023/04/03 04:54:45;;;;;;;6.00;3.15;;;;;;;9.24;71.72;100650.66;4990008;28;20479;-82
2023/04/03 04:57:10;;;;;;;3.38;2.72;;;;;;;9.32;71.25;100659.75;4997793;28;20470;-84
2023/04/03 04:59:36;;;;;;;4.57;2.05;;;;;;;9.36;71.69;100671.66;4988636;28;20033;-86
2023/04/03 05:02:01;;;;;;;1.85;1.75;;;;;;;9.36;71.21;100668.25;4989344;28;20034;-92
2023/04/03 05:04:27;;;;;;;5.07;3.13;;;;;;;9.33;71.13;100666.59;4974628;28;20030;-94
2023/04/03 05:06:52;;;;;;;8.45;5.47;;;;;;;9.11;71.43;100637.47;4992065;28;20087;-85
2023/04/03 05:09:19;;;;;;;2.75;2.47;;;;;;;9.37;72.17;100675.91;4989565;28;20497;-87
2023/04/03 05:11:45;;;;;;;18.23;7.38;;;;;;;9.19;71.74;100637.97;4989451;28;20035;-87
2023/04/03 05:14:11;;;;;;;14.05;8.18;;;;;;;9.22;71.54;100639.56;4990903;28;20030;-84
2023/04/03 05:16:36;;;;;;;6.10;4.15;;;;;;;9.54;71.09;100692.41;4990245;28;20034;-90
2023/04/03 05:19:02;;;;;;;4.20;3.00;;;;;;;9.41;71.18;100669.69;5006096;28;20034;-87
2023/04/03 05:21:31;;;;;;;4.57;3.28;;;;;;;9.66;71.05;100692.72;4991288;28;20089;-86
2023/04/03 05:23:57;;;;;;;10.05;4.35;;;;;;;9.63;70.57;100681.66;4989561;28;20113;-82
2023/04/03 05:26:23;;;;;;;4.65;2.00;;;;;;;9.66;70.89;100689.31;4992821;28;20022;-94
2023/04/03 05:28:48;;;;;;;6.65;3.22;;;;;;;9.80;70.44;100683.50;4962346;28;20491;-87
2023/04/03 05:31:14;;;;;;;5.90;3.50;;;;;;;9.92;70.58;100694.13;4990073;28;20050;-86
2023/04/03 05:33:39;;;;;;;3.35;2.20;;;;;;;9.82;69.72;100666.19;4991251;28;20077;-92
2023/04/03 05:36:05;;;;;;;2.63;2.25;;;;;;;10.09;69.68;100703.72;4989203;28;20054;-91
2023/04/03 05:38:31;;;;;;;4.72;3.03;;;;;;;10.26;69.38;100714.16;4973664;28;20062;-86
2023/04/03 05:40:57;;;;;;;5.97;2.58;;;;;;;10.35;68.98;100723.25;4974346;28;20034;-87
2023/04/03 05:43:22;;;;;;;9.55;3.67;;;;;;;10.45;68.94;100728.81;4974047;28;20038;-90
2023/04/03 05:45:48;;;;;;;116.85;21.10;;;;;;;10.39;69.24;100693.72;4989932;28;20026;-86
2023/04/03 05:48:13;;;;;;;10.98;3.55;;;;;;;10.64;68.32;100734.81;4989610;28;20053;-89
2023/04/03 05:50:41;;;;;;;5.70;2.38;;;;;;;10.75;67.92;100729.97;4989895;28;20030;-90
2023/04/03 05:53:06;;;;;;;4.82;2.95;;;;;;;10.79;67.39;100713.38;4990180;28;20057;-88
2023/04/03 05:55:32;;;;;;;3.00;2.42;;;;;;;11.00;66.72;100723.59;4972828;28;20034;-86
2023/04/03 05:57:57;;;;;;;3.25;2.22;;;;;;;11.04;66.60;100725.97;4974013;28;20030;-91
2023/04/03 06:00:23;;;;;;;3.67;2.35;;;;;;;11.11;66.21;100735.09;4972658;28;20038;-88
2023/04/03 06:02:49;;;;;;;4.47;2.53;;;;;;;11.19;65.85;100727.78;4971783;28;20034;-88
2023/04/03 06:05:14;;;;;;;8.93;2.50;;;;;;;11.33;65.62;100736.63;4991053;28;20022;-94
2023/04/03 06:07:40;;;;;;;8.00;3.10;;;;;;;11.39;65.19;100738.88;4994535;28;20026;-92
2023/04/03 06:10:06;;;;;;;3.55;2.50;;;;;;;11.39;64.86;100731.13;4989993;28;20519;-85
2023/04/03 06:12:32;;;;;;;5.32;2.80;;;;;;;11.64;64.80;100757.47;4988236;28;20037;-92
2023/04/03 06:14:57;;;;;;;3.22;2.13;;;;;;;11.71;65.52;100758.84;4958216;28;20038;-85
2023/04/03 06:17:23;;;;;;;5.80;1.63;;;;;;;11.74;64.48;100739.69;4972090;28;20054;-86
2023/04/03 06:19:48;;;;;;;5.47;2.72;;;;;;;11.86;64.05;100765.00;4954711;28;20022;-90
2023/04/03 06:22:14;;;;;;;3.38;1.60;;;;;;;11.72;64.33;100729.41;4972112;28;20023;-85
2023/04/03 06:24:40;;;;;;;7.10;3.15;;;;;;;11.89;63.89;100745.84;4955108;28;20027;-91
2023/04/03 06:27:05;;;;;;;8.80;3.45;;;;;;;11.98;64.75;100745.38;4971457;28;20377;-87
2023/04/03 06:29:31;;;;;;;5.53;2.80;;;;;;;12.18;64.36;100758.13;4971777;28;20030;-91
2023/04/03 06:31:56;;;;;;;6.78;3.53;;;;;;;12.27;64.11;100752.44;4990350;28;20031;-85
2023/04/03 06:34:22;;;;;;;5.20;2.95;;;;;;;12.47;63.06;100766.09;4972135;28;20034;-89
2023/04/03 06:36:48;;;;;;;6.10;2.67;;;;;;;12.61;62.62;100763.59;4974699;28;20077;-89
2023/04/03 06:39:15;;;;;;;6.75;2.28;;;;;;;12.67;62.77;100752.00;4977127;28;20034;-80
2023/04/03 06:41:41;;;;;;;4.07;2.30;;;;;;;12.82;62.18;100746.81;4960424;28;20065;-85
2023/04/03 06:44:10;;;;;;;7.68;2.70;;;;;;;12.91;62.27;100746.28;4975993;28;20030;-90
2023/04/03 06:46:36;;;;;;;3.78;2.22;;;;;;;13.00;61.23;100739.75;4961392;28;20117;-85
2023/04/03 06:49:01;;;;;;;4.10;2.60;;;;;;;13.14;61.24;100746.75;4972031;28;20121;-90
2023/04/03 06:51:28;;;;;;;6.47;3.47;;;;;;;13.28;61.36;100754.63;4989971;28;20496;-87
2023/04/03 06:53:55;;;;;;;8.18;3.42;;;;;;;13.38;60.39;100734.13;4991037;28;20022;-92
2023/04/03 06:56:21;;;;;;;4.40;2.85;;;;;;;13.47;60.02;100755.22;4974046;28;20022;-92
2023/04/03 06:58:46;;;;;;;3.40;1.95;;;;;;;13.55;59.60;100746.94;4973445;28;20621;-87
2023/04/03 07:01:13;;;;;;;6.43;3.47;;;;;;;13.71;59.76;100757.28;5007141;28;20018;-90
2023/04/03 07:03:39;;;;;;;6.13;2.90;;;;;;;13.73;58.91;100751.06;4975571;28;20511;-85
2023/04/03 07:06:06;;;;;;;4.93;3.03;;;;;;;13.91;58.60;100759.50;4991745;28;20035;-88
2023/04/03 07:08:32;;;;;;;5.13;2.50;;;;;;;13.91;58.77;100754.31;4990969;28;20042;-86
2023/04/03 07:10:58;;;;;;;4.50;2.53;;;;;;;14.05;58.51;100759.50;4958022;28;20042;-84
2023/04/03 07:13:23;;;;;;;4.93;2.95;;;;;;;14.30;58.17;100771.00;4991810;28;20034;-85
2023/04/03 07:15:49;;;;;;;5.55;2.88;;;;;;;14.42;57.80;100765.03;4975133;28;20033;-90
2023/04/03 07:18:16;;;;;;;6.20;2.72;;;;;;;14.59;57.11;100772.66;4992379;28;20091;-95
2023/04/03 07:20:42;;;;;;;3.38;2.42;;;;;;;14.64;56.33;100767.97;4975442;28;20026;-91
2023/04/03 07:23:07;;;;;;;8.13;3.20;;;;;;;14.70;56.20;100758.94;4991956;28;20034;-88
2023/04/03 07:25:33;;;;;;;5.97;4.03;;;;;;;14.68;54.92;100742.59;4973587;28;20076;-83
2023/04/03 07:27:59;;;;;;;8.93;4.32;;;;;;;14.81;55.48;100745.25;4974906;28;20504;-87
2023/04/03 07:30:25;;;;;;;9.88;4.13;;;;;;;14.95;54.88;100753.00;4975266;28;20088;-93
2023/04/03 07:32:51;;;;;;;19.38;3.08;;;;;;;14.93;54.12;100754.84;4975633;28;20128;-91
2023/04/03 07:35:17;;;;;;;5.35;2.88;;;;;;;15.01;54.44;100759.56;4961971;28;20088;-92
2023/04/03 07:37:42;;;;;;;4.75;2.72;;;;;;;14.95;55.62;100731.34;4975219;28;20033;-87
2023/04/03 07:40:08;;;;;;;3.58;2.03;;;;;;;15.19;53.36;100740.13;4991662;28;20030;-92
2023/04/03 07:42:34;;;;;;;5.57;2.90;;;;;;;15.13;54.52;100727.50;4975379;28;20492;-84
2023/04/03 07:45:00;;;;;;;3.83;2.10;;;;;;;15.12;54.00;100703.22;4958632;28;20385;-85
2023/04/03 07:47:26;;;;;;;6.45;2.67;;;;;;;15.40;53.35;100737.88;4991160;28;20076;-84
2023/04/03 07:49:51;;;;;;;7.25;4.00;;;;;;;15.50;53.32;100751.94;4991757;28;20034;-85
2023/04/03 07:52:17;;;;;;;5.65;3.05;;;;;;;15.66;53.91;100749.19;4973093;28;20030;-83
2023/04/03 07:54:42;;;;;;;6.35;3.13;;;;;;;15.45;52.35;100720.16;4973807;28;20027;-85
2023/04/03 07:57:08;;;;;;;4.65;2.90;;;;;;;15.66;52.29;100752.63;4990022;28;20030;-83
2023/04/03 07:59:33;;;;;;;5.45;2.38;;;;;;;15.69;53.24;100755.00;4991771;28;20077;-83
2023/04/03 08:01:59;;;;;;;12.20;3.53;;;;;;;15.64;53.72;100751.91;4990147;28;20105;-85
2023/04/03 08:04:25;;;;;;;8.65;3.50;;;;;;;15.59;53.13;100737.47;4990670;28;20038;-87
2023/04/03 08:06:57;;;;;;;6.28;3.50;;;;;;;15.65;53.60;100732.69;4974693;28;20023;-88
2023/04/03 08:09:22;;;;;;;3.70;2.42;;;;;;;15.92;53.09;100743.00;4992960;28;20119;-88
2023/04/03 08:11:48;;;;;;;4.57;1.95;;;;;;;15.90;52.04;100728.38;4990220;28;20034;-88
2023/04/03 08:14:16;;;;;;;2.28;1.63;;;;;;;16.00;51.87;100743.28;4958131;28;20039;-84
2023/04/03 08:16:43;;;;;;;4.00;1.75;;;;;;;15.90;51.54;100723.16;4973437;28;20034;-84
2023/04/03 08:19:10;;;;;;;6.25;3.65;;;;;;;16.15;51.65;100746.63;4957986;28;20109;-84
2023/04/03 08:21:36;;;;;;;2.72;1.73;;;;;;;16.13;53.62;100732.84;4972682;28;20030;-89
2023/04/03 08:24:03;;;;;;;7.20;1.92;;;;;;;16.05;51.82;100702.06;4990478;28;20116;-87
2023/04/03 08:26:28;;;;;;;6.47;2.40;;;;;;;16.38;51.16;100731.09;4990975;28;20411;-93
2023/04/03 08:28:54;;;;;;;2.75;1.92;;;;;;;16.46;51.50;100740.06;4974343;28;20041;-87
2023/04/03 08:31:19;;;;;;;5.32;1.98;;;;;;;16.48;51.04;100729.50;4990101;28;20033;-87
2023/04/03 08:33:45;;;;;;;4.22;2.45;;;;;;;16.46;50.70;100728.78;4973485;28;20113;-84
2023/04/03 08:36:21;;;;;;;4.53;2.40;;;;;;;16.37;51.40;100703.34;4973234;28;20090;-84
2023/04/03 08:38:47;;;;;;;4.05;1.92;;;;;;;16.53;50.37;100722.19;4989460;28;20425;-90
2023/04/03 08:41:30;;;;;;;5.85;2.70;;;;;;;16.50;51.09;100715.38;4975451;28;20033;-94
2023/04/03 08:44:32;;;;;;;2.72;1.58;;;;;;;16.49;49.26;100708.50;4974085;28;20110;-88
2023/04/03 08:47:11;;;;;;;4.97;1.95;;;;;;;16.48;49.57;100716.44;4988744;28;20026;-83
2023/04/03 08:49:51;;;;;;;2.92;1.60;;;;;;;16.46;49.53;100713.13;4987937;28;20500;-91
2023/04/03 08:52:39;;;;;;;3.75;1.85;;;;;;;16.40;49.37;100721.38;4989055;28;20034;-87
2023/04/03 08:55:07;;;;;;;4.10;2.05;;;;;;;16.27;49.45;100692.72;4989685;28;20030;-85
2023/04/03 08:57:38;;;;;;;6.95;2.20;;;;;;;16.15;50.34;100702.25;4957599;28;20030;-92
2023/04/03 09:00:13;;;;;;;4.38;2.05;;;;;;;16.31;51.30;100720.25;4970733;28;20090;-82
2023/04/03 09:02:52;;;;;;;4.57;2.00;;;;;;;16.39;49.89;100723.16;4987701;28;20042;-85
2023/04/03 09:05:35;;;;;;;3.35;1.80;;;;;;;16.47;49.73;100723.44;4973132;28;20034;-87
2023/04/03 09:08:05;;;;;;;3.38;1.85;;;;;;;16.47;50.38;100713.00;4988685;28;20416;-83
2023/04/03 09:10:33;;;;;;;3.70;2.13;;;;;;;16.65;49.99;100713.44;4973841;28;20033;-83
2023/04/03 09:13:06;;;;;;;4.82;2.45;;;;;;;16.63;49.96;100715.34;4990065;28;20029;-88
2023/04/03 09:15:32;;;;;;;10.05;2.53;;;;;;;16.67;50.83;100721.16;4973877;28;20117;-85
2023/04/03 09:18:30;;;;;;;13.18;5.47;;;;;;;16.65;49.23;100716.06;4952276;28;20037;-87
2023/04/03 09:21:18;;;;;;;4.60;2.88;;;;;;;16.69;49.47;100714.91;5001137;28;20034;-84
2023/04/03 09:23:55;;;;;;;2.60;1.65;;;;;;;16.68;49.84;100671.47;4955236;28;20026;-85
2023/04/03 09:26:44;;;;;;;3.25;1.73;;;;;;;16.91;47.56;100699.34;4969765;28;20426;-85
2023/04/03 09:29:13;;;;;;;4.57;1.50;;;;;;;16.88;47.62;100677.81;4970576;28;20041;-88
2023/04/03 09:31:40;;;;;;;4.07;1.50;;;;;;;17.14;46.63;100694.19;4973604;28;20080;-91
2023/04/03 09:34:21;;;;;;;5.45;1.70;;;;;;;17.18;46.08;100683.34;4972800;28;20054;-84
2023/04/03 09:36:48;;;;;;;2.10;1.50;;;;;;;17.31;47.11;100680.66;4974833;28;20050;-84
2023/04/03 09:39:25;;;;;;;2.63;1.65;;;;;;;17.60;46.66;100701.13;4973173;28;20109;-84
2023/04/03 09:42:23;;;;;;;3.45;1.90;;;;;;;17.59;45.80;100696.84;4988875;28;20562;-81
2023/04/03 09:44:57;;;;;;;2.03;1.40;;;;;;;17.55;45.71;100700.66;4972970;28;20081;-89
2023/04/03 09:47:27;;;;;;;2.25;1.48;;;;;;;17.56;46.02;100711.00;4972941;28;20489;-82
2023/04/03 09:50:12;;;;;;;3.97;1.70;;;;;;;17.57;46.20;100701.38;4973547;28;20031;-85
2023/04/03 09:52:38;;;;;;;2.67;1.60;;;;;;;17.44;47.49;100683.16;4990308;28;20030;-82
2023/04/03 09:55:27;;;;;;;2.70;1.60;;;;;;;17.47;46.61;100704.69;4973581;28;20085;-81
2023/04/03 09:58:03;;;;;;;2.45;1.30;;;;;;;17.40;46.33;100710.47;4973280;28;20081;-81
2023/04/03 10:00:37;;;;;;;2.33;1.45;;;;;;;17.30;46.32;100704.28;4956350;28;20031;-83
2023/04/03 10:03:02;;;;;;;1.73;1.25;;;;;;;17.30;46.04;100705.13;4986488;28;20096;-85
2023/04/03 10:05:39;;;;;;;2.50;1.58;;;;;;;17.34;46.26;100697.91;4978618;28;20492;-88
2023/04/03 10:08:13;;;;;;;2.40;1.20;;;;;;;17.41;46.14;100706.94;4985156;28;20034;-88
2023/04/03 10:10:43;;;;;;;3.13;1.95;;;;;;;17.49;46.63;100715.84;4989712;28;20594;-90
2023/04/03 10:13:20;;;;;;;2.58;1.30;;;;;;;17.36;46.08;100715.13;4962041;28;20100;-88
2023/04/03 10:15:50;;;;;;;4.32;1.73;;;;;;;17.43;47.13;100708.50;4960249;28;20026;-84
2023/04/03 10:18:27;;;;;;;2.92;1.38;;;;;;;17.40;47.02;100711.34;4958813;28;20120;-81
2023/04/03 10:20:53;;;;;;;3.25;1.65;;;;;;;17.45;46.45;100693.50;4986463;28;20027;-82
2023/04/03 10:23:25;;;;;;;3.25;1.58;;;;;;;17.46;46.66;100689.09;4973303;28;20378;-83
2023/04/03 10:26:04;;;;;;;2.87;2.20;;;;;;;17.53;47.50;100679.03;4957212;28;20393;-87
2023/04/03 10:28:51;;;;;;;9.52;4.65;;;;;;;17.76;46.69;100693.78;4994020;28;20389;-83
2023/04/03 10:31:22;;;;;;;2.83;1.80;;;;;;;17.76;47.37;100678.09;4974289;28;20027;-82
2023/04/03 10:34:05;;;;;;;2.40;1.73;;;;;;;17.90;47.21;100687.50;4988953;28;20137;-84
2023/04/03 10:36:39;;;;;;;3.42;2.28;;;;;;;17.96;46.71;100685.22;4977006;28;20512;-83
2023/04/03 10:39:09;;;;;;;3.78;1.85;;;;;;;18.00;47.35;100683.19;4986978;28;20046;-82
2023/04/03 10:41:56;;;;;;;4.20;2.15;;;;;;;18.14;47.03;100674.25;4972725;28;20031;-81
2023/04/03 10:44:52;;;;;;;1.90;1.50;;;;;;;18.09;48.21;100661.50;4995167;28;20109;-85
2023/04/03 10:47:22;;;;;;;5.00;2.58;;;;;;;18.25;46.71;100666.34;4983652;28;20125;-83
2023/04/03 10:50:02;;;;;;;3.40;1.90;;;;;;;18.27;46.35;100661.81;4981354;28;20023;-84
2023/04/03 10:53:00;;;;;;;3.22;1.77;;;;;;;18.26;46.12;100662.78;4969543;28;20034;-81
2023/04/03 10:55:38;;;;;;;3.10;2.20;;;;;;;18.19;46.61;100662.47;4953500;28;20057;-85
2023/04/03 10:58:05;;;;;;;4.72;1.90;;;;;;;18.23;46.17;100668.28;4951338;28;20110;-88
2023/04/03 11:00:38;;;;;;;3.25;2.05;;;;;;;18.15;45.99;100654.94;4960010;28;20403;-88
2023/04/03 11:03:40;;;;;;;3.60;1.92;;;;;;;18.02;46.20;100628.94;4991507;28;20148;-81
2023/04/03 11:06:08;;;;;;;3.42;1.73;;;;;;;18.14;44.98;100642.81;4971202;28;20046;-88
2023/04/03 11:08:39;;;;;;;3.78;2.00;;;;;;;18.00;44.71;100626.44;4974395;28;20029;-80
2023/04/03 11:11:16;;;;;;;2.65;1.77;;;;;;;18.07;45.33;100626.75;4963687;28;20038;-82
2023/04/03 11:14:15;;;;;;;5.53;2.42;;;;;;;18.22;45.72;100635.19;4959688;28;20034;-82
2023/04/03 11:16:43;;;;;;;2.95;1.70;;;;;;;18.09;43.82;100618.78;4975885;28;20488;-83
2023/04/03 11:19:44;;;;;;;2.83;1.48;;;;;;;17.95;44.55;100628.59;4991600;28;20113;-83
2023/04/03 11:22:32;;;;;;;3.13;1.67;;;;;;;17.71;44.49;100593.91;4991958;28;20079;-92
2023/04/03 11:25:12;;;;;;;2.28;1.38;;;;;;;18.11;44.36;100622.13;4977004;28;20133;-84
2023/04/03 11:27:45;;;;;;;3.72;2.15;;;;;;;18.17;44.58;100617.22;4991271;28;20030;-87
2023/04/03 11:30:20;;;;;;;3.30;1.90;;;;;;;18.29;44.90;100610.19;4974822;28;20037;-85
2023/04/03 11:32:55;;;;;;;3.13;1.95;;;;;;;18.31;44.15;100614.31;4971572;28;20062;-82
2023/04/03 11:35:21;;;;;;;3.05;1.80;;;;;;;18.32;44.29;100597.66;4984810;28;20078;-82